Tiempo atmosférico en la estación meteorológica de Abia De Obispalia, Cuenca (1020 m.)

Fecha
DESCASC
Temp. máxima en grados centígrados (hora)
DESCASC
Temp. mínima en grados centígrados (hora)
DESCASC
Temp. media en grados centígrados
DESCASC
Racha de viento máxima en m/sg (hora)
DESCASC
Velocidad máxima media en intervalos de 10 minutos(hora)
DESCASC
Precipitaciones diarias en mm
DESCASC
Precipitaciones de 00:00 a 06:00 en mm
DESCASC
Precipitaciones de 06:00 a 12:00 en mm
DESCASC
Precipitaciones de 12:00 a 18:00 en mm
DESCASC
Precipitaciones de 18:00 a 24:00 en mm
DESCASC
24-09-2017 28.3 (16:20) 8.9 (08:00) 18.6 7.5 (13:20) 3.61 (16:30) 0 0 0 0 0
23-09-2017 27.2 (16:30) 10.5 (08:10) 18.9 10.83 (00:10) 6.11 (00:10) 0 0 0 0 0
22-09-2017 24.8 (16:50) 12.6 (08:00) 18.7 12.22 (22:20) 8.06 (22:20) 0 0 0 0 0
21-09-2017 28.6 (15:20) 10.5 (00:00) 19.6 10.28 (22:50) 6.67 (23:00) 0 0 0 0 0
20-09-2017 27.6 (16:50) 5.4 (00:00) 16.5 5.83 (17:50) 2.78 (14:20) 0 0 0 0 0
19-09-2017 25.1 (17:10) 5.4 (00:00) 15.3 8.61 (12:50) 4.17 (12:50) 0 0 0 0 0
18-09-2017 23.5 (14:50) 3.9 (00:00) 13.7 10 (15:30) 5.83 (15:30) 0 0 0 0 0
17-09-2017 23.5 (16:30) 3.4 (00:00) 13.5 8.89 (16:40) 4.17 (13:40) 0 0 0 0 0
16-09-2017 20.1 (15:40) 4.1 (00:00) 12.1 16.11 (15:40) 4.72 (17:20) 0 0 0 0 0
15-09-2017 24.2 (13:30) 10.8 (00:00) 17.5 9.17 (00:50) 6.67 (01:00) 0 0 0 0 0
14-09-2017 28.3 (15:10) 9.5 (00:00) 18.9 8.33 (12:40) 4.72 (15:20) 0 0 0 0 0
13-09-2017 30.3 (17:20) 8.8 (00:00) 19.5 8.33 (15:30) 4.72 (23:10) 0 0 0 0 0
12-09-2017 26.6 (18:00) 8.7 (00:00) 17.7 8.61 (13:40) 4.72 (16:00) 0 0 0 0 0
11-09-2017 28.2 (17:30) 7.1 (00:00) 17.7 12.5 (17:10) 6.39 (16:30) 0 0 0 0 0
10-09-2017 22.6 (18:00) 8.1 (00:00) 15.4 11.11 (13:00) 5.56 (11:20) 0 0 0 0 0
09-09-2017 22.5 (14:10) 9.6 (00:00) 16.1 11.11 (16:00) 6.39 (19:00) 0 0 0 0 0
08-09-2017 29.5 (16:20) 9.7 (00:00) 19.6 8.61 (17:20) 3.89 (16:30) 0 0 0 0 0
07-09-2017 29.2 (16:40) 13.2 (00:00) 21.2 7.22 (17:30) 4.44 (01:40) 0 0 0 0 0
06-09-2017 32 (17:20) 14.4 (00:00) 23.2 10.56 (20:10) 6.11 (19:20) 0 0 0 0 0
05-09-2017 31.1 (17:40) 14.1 (00:00) 22.6 7.78 (09:50) 5 (09:50) 0 0 0 0 0
04-09-2017 29.1 (17:30) 9.4 (00:00) 19.3 8.06 (16:40) 4.44 (23:40) 0 0 0 0 0
03-09-2017 29.8 (17:30) 8.7 (00:00) 19.2 8.61 (15:30) 4.17 (14:00) 0 0 0 0 0
02-09-2017 27.8 (17:50) 8 (00:00) 17.9 8.33 (00:30) 4.72 (00:30) 0 0 0 0 0
01-09-2017 28 (17:10) 14.5 (00:00) 21.3 8.33 (16:00) 5 (00:20) 0 0 0 0 0
31-08-2017 28.2 (18:20) 11.9 (00:00) 20.1 7.5 (23:59) 5 (23:50) 0.2 0 0 0.2 0
30-08-2017 24.4 (18:00) 13.9 (00:00) 19.1 6.67 (07:30) 4.72 (04:50) 0.2 0 0.2 0 0
29-08-2017 24 (15:30) 13.1 (00:00) 18.6 10.56 (17:30) 6.94 (17:40) 12.6 0.2 2.8 9.4 0.2
28-08-2017 25.6 (12:30) 14.8 (00:00) 20.2 11.67 (17:20) 7.22 (04:50) 7.8 0.2 0.2 1.6 5.8
27-08-2017 24.2 (10:30) 15.4 (00:00) 19.8 14.72 (15:00) 9.72 (19:20) 5.8 0 0.6 5.2 0
26-08-2017 32.8 (14:10) 19.5 (00:00) 26.1 8.89 (09:50) 6.39 (03:20) 0.6 0 0 0 0.6

Gráficas

Temp. máximas Temp. mínimas Temp. medias Precipitaciones Rachas de viento máximas Velocidades máximas media en intervalos de 10 minutos

Datos horarios

Fecha y hora oficial Temperatura (ºC) Velocidad del viento (km/h) Dirección del viento Racha (km/h) Dirección de racha Precipitación (mm) Presión (hPa) Tendencia (hPa) Humedad (%)
2017-09-24 23:00:00 14.1 0 Calma 3 Sur 0 -- -- 55
2017-09-24 22:00:00 14.6 0 Calma 4 Oeste 0 -- -- 52
2017-09-24 21:00:00 17.7 2 Sudoeste 8 Oeste 0 -- -- 43
2017-09-24 20:00:00 22.5 4 Oeste 19 Noroeste 0 -- -- 33
2017-09-24 19:00:00 25.7 8 Noroeste 18 Noroeste 0 -- -- 28
2017-09-24 18:00:00 27.8 8 Noroeste 21 Noroeste 0 -- -- 25
2017-09-24 17:00:00 27.9 9 Oeste 25 Oeste 0 -- -- 27
2017-09-24 16:00:00 28 9 Sudoeste 23 Noroeste 0 -- -- 27
2017-09-24 15:00:00 27.4 9 Oeste 26 Noroeste 0 -- -- 28
2017-09-24 14:00:00 26.8 8 Sudoeste 27 Noroeste 0 -- -- 29
2017-09-24 13:00:00 26.4 7 Sudoeste 18 Sudoeste 0 -- -- 32
2017-09-24 12:00:00 25.2 5 Sudoeste 13 Noroeste 0 -- -- 37
2017-09-24 11:00:00 22.6 4 Sudeste 9 Sur 0 -- -- 44
2017-09-24 10:00:00 17.5 2 Nordeste 5 Nordeste 0 -- -- 66
2017-09-24 09:00:00 10.7 0 Calma 3 Sur 0 -- -- 97
2017-09-24 08:00:00 8.9 0 Calma 4 Sur 0 -- -- 92
2017-09-24 07:00:00 9.8 0 Calma 4 Sur 0 -- -- 91
2017-09-24 06:00:00 9.9 3 Sur 5 Sudeste 0 -- -- 91
2017-09-24 05:00:00 11.3 0 Calma 4 Noroeste 0 -- -- 87
2017-09-24 04:00:00 11.8 0 Calma 5 Este 0 -- -- 80
2017-09-24 03:00:00 12.3 2 Noroeste 5 Nordeste 0 -- -- 76
2017-09-24 02:00:00 12.7 2 Noroeste 8 Nordeste 0 -- -- 67
2017-09-24 01:00:00 14.9 2 Nordeste 14 Sur 0 -- -- 56
2017-09-24 00:00:00 14.8 10 Sur 17 Sur 0 -- -- 55
2017-09-23 23:00:00 13.9 0 Calma 8 Sudoeste 0 -- -- 55
2017-09-23 22:00:00 14.3 3 Sudoeste 7 Sudoeste 0 -- -- 56
2017-09-23 21:00:00 15.4 0 Calma 5 Oeste 0 -- -- 47
2017-09-23 20:00:00 19.9 2 Oeste 13 Noroeste 0 -- -- 38
2017-09-23 19:00:00 25 6 Oeste 18 Oeste 0 -- -- 28
2017-09-23 18:00:00 26.8 6 Noroeste 17 Noroeste 0 -- -- 27
2017-09-23 17:00:00 25.7 8 Sudoeste 17 Sudoeste 0 -- -- 32
2017-09-23 16:00:00 26.5 6 Sur 21 Sur 0 -- -- 31
2017-09-23 15:00:00 25.6 7 Sur 25 Sudoeste 0 -- -- 33
2017-09-23 14:00:00 24.6 13 Sur 26 Sur 0 -- -- 36
2017-09-23 13:00:00 23.3 14 Sur 25 Sudeste 0 -- -- 36
2017-09-23 12:00:00 22 15 Sur 23 Sur 0 -- -- 45
2017-09-23 11:00:00 19.6 11 Sudeste 23 Sudeste 0 -- -- 53
2017-09-23 10:00:00 15.9 9 Sudeste 18 Este 0 -- -- 73
2017-09-23 09:00:00 12.1 9 Sudeste 17 Sudeste 0 -- -- 92
2017-09-23 08:00:00 10.7 3 Norte 18 Este 0 -- -- 94
2017-09-23 07:00:00 11.4 7 Sudeste 24 Sudeste 0 -- -- 94
2017-09-23 06:00:00 11.8 9 Sudeste 24 Sudeste 0 -- -- 91
2017-09-23 05:00:00 11.6 11 Sudeste 27 Sudeste 0 -- -- 79
2017-09-23 04:00:00 11.9 18 Sudeste 25 Sudeste 0 -- -- 81
2017-09-23 03:00:00 12.8 13 Sudeste 20 Sudeste 0 -- -- 84
2017-09-23 02:00:00 13.8 12 Sudeste 26 Sudeste 0 -- -- 83
2017-09-23 01:00:00 14.3 15 Sudeste 39 Sudeste 0 -- -- 80
2017-09-23 00:00:00 15 24 Sudeste 40 Sudeste 0 -- -- 78
2017-09-22 23:00:00 15.7 14 Este 44 Sudeste 0 -- -- 69
2017-09-22 22:00:00 17.5 23 Sudeste 40 Sudeste 0 -- -- 67
2017-09-22 21:00:00 19.1 18 Sudeste 31 Sudeste 0 -- -- 54
2017-09-22 20:00:00 19.2 8 Sur 19 Sur 0 -- -- 47
2017-09-22 19:00:00 21 11 Sur 27 Sur 0 -- -- 41
2017-09-22 18:00:00 24.3 16 Sur 32 Sur 0 -- -- 34
2017-09-22 17:00:00 24.6 19 Sur 30 Sur 0 -- -- 34
2017-09-22 16:00:00 23.6 14 Sur 29 Sudeste 0 -- -- 39
2017-09-22 15:00:00 24.5 18 Sudeste 29 Sudeste 0 -- -- 35
2017-09-22 14:00:00 23.2 16 Sur 28 Sudeste 0 -- -- 40
2017-09-22 13:00:00 19.2 9 Sudeste 21 Sudeste 0 -- -- 56
2017-09-22 12:00:00 17.6 4 Sudeste 17 Sudeste 0 -- -- 64
2017-09-22 11:00:00 16.7 10 Sudeste 22 Este 0 -- -- 74
2017-09-22 10:00:00 14.6 10 Sudeste 20 Sudeste 0 -- -- 83
2017-09-22 09:00:00 13.5 11 Sudeste 21 Sudeste 0 -- -- 89
2017-09-22 08:00:00 12.6 4 Sudeste 16 Sudeste 0 -- -- 88
2017-09-22 07:00:00 13.6 8 Sudeste 18 Sudeste 0 -- -- 85
2017-09-22 06:00:00 14.7 9 Sudeste 20 Sudeste 0 -- -- 79
2017-09-22 05:00:00 15.3 13 Sudeste 23 Sudeste 0 -- -- 80
2017-09-22 04:00:00 15.8 13 Sudeste 29 Sudeste 0 -- -- 80
2017-09-22 03:00:00 16.2 18 Sudeste 28 Sudeste 0 -- -- 78
2017-09-22 02:00:00 16.5 15 Sudeste 23 Sudeste 0 -- -- 76
2017-09-22 01:00:00 17.4 14 Sudeste 25 Sudeste 0 -- -- 68
2017-09-22 00:00:00 18.2 16 Sudeste 31 Sur 0 -- -- 63
2017-09-21 23:00:00 19.4 24 Sur 37 Sur 0 -- -- 52
2017-09-21 22:00:00 15.2 0 Calma 4 Sudoeste 0 -- -- 43
2017-09-21 21:00:00 17.3 2 Oeste 5 Sudoeste 0 -- -- 37
2017-09-21 20:00:00 23.2 3 Oeste 12 Oeste 0 -- -- 26
2017-09-21 19:00:00 25.9 3 Oeste 19 Sudoeste 0 -- -- 26
2017-09-21 18:00:00 27.2 9 Oeste 22 Noroeste 0 -- -- 23
2017-09-21 17:00:00 28.1 7 Sudoeste 22 Sur 0 -- -- 23
2017-09-21 16:00:00 27.8 8 Sudoeste 23 Sur 0 -- -- 24
2017-09-21 15:00:00 28.3 9 Sudoeste 21 Oeste 0 -- -- 24
2017-09-21 14:00:00 26.4 8 Sudoeste 18 Sur 0 -- -- 24
2017-09-21 13:00:00 25.5 8 Oeste 15 Oeste 0 -- -- 33
2017-09-21 12:00:00 23.1 8 Sur 14 Sur 0 -- -- 43
2017-09-21 11:00:00 20.5 9 Sudeste 15 Sudeste 0 -- -- 56
2017-09-21 10:00:00 17.6 8 Sudeste 13 Sudeste 0 -- -- 72
2017-09-21 09:00:00 12.3 0 Calma 6 Este 0 -- -- 96
2017-09-21 08:00:00 10.5 0 Calma 5 Noroeste 0 -- -- 94
2017-09-21 07:00:00 11.5 2 Sur 7 Sudeste 0 -- -- 92
2017-09-21 06:00:00 11.3 0 Calma 3 Sudeste 0 -- -- 92
2017-09-21 05:00:00 12.8 2 Este 9 Sur 0 -- -- 88
2017-09-21 04:00:00 12.7 0 Calma 6 Sudeste 0 -- -- 80
2017-09-21 03:00:00 13.9 2 Este 11 Sudeste 0 -- -- 76
2017-09-21 02:00:00 15.6 9 Sudeste 24 Sur 0 -- -- 66
2017-09-21 01:00:00 16.5 19 Sur 26 Sur 0 -- -- 51
2017-09-21 00:00:00 12.3 4 Sudoeste 6 Sudoeste 0 -- -- 51
2017-09-20 23:00:00 12.2 2 Sur 3 Sudoeste 0 -- -- 50
2017-09-20 22:00:00 13.4 2 Sudoeste 3 Sudoeste 0 -- -- 46
2017-09-20 21:00:00 16.3 0 Calma 7 Oeste 0 -- -- 38
2017-09-20 20:00:00 22.1 5 Oeste 15 Oeste 0 -- -- 27
2017-09-20 19:00:00 25.3 9 Oeste 16 Oeste 0 -- -- 22
2017-09-20 18:00:00 27 9 Noroeste 21 Oeste 0 -- -- 21
2017-09-20 17:00:00 27.3 7 Oeste 19 Noroeste 0 -- -- 21
2017-09-20 16:00:00 27.2 5 Sudoeste 19 Oeste 0 -- -- 22
2017-09-20 15:00:00 26.3 7 Noroeste 19 Oeste 0 -- -- 23
2017-09-20 14:00:00 25.5 6 Noroeste 19 Noroeste 0 -- -- 25
2017-09-20 13:00:00 24.5 7 Noroeste 17 Noroeste 0 -- -- 28
2017-09-20 12:00:00 22.8 4 Noroeste 10 Oeste 0 -- -- 32
2017-09-20 11:00:00 20.3 4 Sur 11 Sur 0 -- -- 42
2017-09-20 10:00:00 15.2 3 Este 6 Este 0 -- -- 47
2017-09-20 09:00:00 9.2 3 Nordeste 4 Norte 0 -- -- 55
2017-09-20 08:00:00 6.1 0 Calma 3 Sudoeste 0 -- -- 65
2017-09-20 07:00:00 5.6 0 Calma 4 Sudeste 0 -- -- 68
2017-09-20 06:00:00 6.6 0 Calma 5 Sur 0 -- -- 65
2017-09-20 05:00:00 7.3 4 Sudeste 5 Sudeste 0 -- -- 58
2017-09-20 04:00:00 8.9 3 Sur 10 Este 0 -- -- 52
2017-09-20 03:00:00 7.7 0 Calma 4 Sudeste 0 -- -- 51
2017-09-20 02:00:00 8.5 0 Calma 5 Sur 0 -- -- 51
2017-09-20 01:00:00 9.2 3 Sur 5 Sur 0 -- -- 50
2017-09-20 00:00:00 9.9 0 Calma 4 Sur 0 -- -- 56
2017-09-19 23:00:00 10.6 0 Calma 5 Sudoeste 0 -- -- 55
2017-09-19 22:00:00 11.5 0 Calma 2 Sudoeste 0 -- -- 51
2017-09-19 21:00:00 14.9 2 Sudoeste 6 Noroeste 0 -- -- 42
2017-09-19 20:00:00 20.3 5 Noroeste 18 Noroeste 0 -- -- 32
2017-09-19 19:00:00 23.7 8 Norte 25 Noroeste 0 -- -- 28
2017-09-19 18:00:00 25 12 Norte 25 Norte 0 -- -- 26
2017-09-19 17:00:00 24.9 12 Norte 27 Noroeste 0 -- -- 26
2017-09-19 16:00:00 24.2 13 Noroeste 30 Noroeste 0 -- -- 28
2017-09-19 15:00:00 23.8 13 Norte 27 Noroeste 0 -- -- 27
2017-09-19 14:00:00 22.4 13 Norte 28 Noroeste 0 -- -- 32
2017-09-19 13:00:00 21.2 12 Norte 31 Norte 0 -- -- 38
2017-09-19 12:00:00 20.2 12 Norte 24 Norte 0 -- -- 39
2017-09-19 11:00:00 18.6 11 Noroeste 21 Noroeste 0 -- -- 45
2017-09-19 10:00:00 14.5 0 Calma 3 Norte 0 -- -- 54
2017-09-19 09:00:00 8.4 0 Calma 3 Sudeste 0 -- -- 85
2017-09-19 08:00:00 5.4 0 Calma -- -- 0 -- -- 85
2017-09-19 07:00:00 6.1 0 Calma -- -- 0 -- -- 81
2017-09-19 06:00:00 6.1 0 Calma 3 Sudoeste 0 -- -- 79
2017-09-19 05:00:00 6.5 0 Calma 3 Sur 0 -- -- 77
2017-09-19 04:00:00 6.4 0 Calma 3 Sur 0 -- -- 77
2017-09-19 03:00:00 6.5 0 Calma 3 Oeste 0 -- -- 75
2017-09-19 02:00:00 6.8 0 Calma 2 Sur 0 -- -- 73
2017-09-19 01:00:00 8 0 Calma 3 Sur 0 -- -- 68
2017-09-19 00:00:00 9.2 0 Calma 4 Este 0 -- -- 64
2017-09-18 23:00:00 10.8 0 Calma 13 Noroeste 0 -- -- 57
2017-09-18 22:00:00 14.7 6 Noroeste 18 Noroeste 0 -- -- 47
2017-09-18 21:00:00 16.8 10 Noroeste 22 Noroeste 0 -- -- 43
2017-09-18 20:00:00 18.5 11 Noroeste 31 Noroeste 0 -- -- 38
2017-09-18 19:00:00 21 14 Noroeste 29 Noroeste 0 -- -- 33
2017-09-18 18:00:00 21.5 15 Noroeste 32 Noroeste 0 -- -- 33
2017-09-18 17:00:00 22.6 19 Noroeste 34 Noroeste 0 -- -- 33
2017-09-18 16:00:00 22.3 17 Noroeste 36 Noroeste 0 -- -- 32
2017-09-18 15:00:00 23.1 17 Noroeste 32 Noroeste 0 -- -- 28
2017-09-18 14:00:00 21.7 13 Oeste 28 Oeste 0 -- -- 30
2017-09-18 13:00:00 20.2 13 Noroeste 27 Oeste 0 -- -- 39
2017-09-18 12:00:00 18.6 12 Noroeste 27 Noroeste 0 -- -- 35
2017-09-18 11:00:00 17.3 9 Oeste 19 Oeste 0 -- -- 33
2017-09-18 10:00:00 13.9 5 Noroeste 9 Noroeste 0 -- -- 41
2017-09-18 09:00:00 8.2 0 Calma 3 Sudeste 0 -- -- 54
2017-09-18 08:00:00 3.9 0 Calma -- -- 0 -- -- 70
2017-09-18 07:00:00 4.6 0 Calma 5 Oeste 0 -- -- 66
2017-09-18 06:00:00 5.8 3 Oeste 5 Oeste 0 -- -- 58
2017-09-18 05:00:00 6.7 0 Calma 6 Sudoeste 0 -- -- 56
2017-09-18 04:00:00 7.5 4 Sudoeste 8 Sudoeste 0 -- -- 54
2017-09-18 03:00:00 8 2 Sur 6 Sur 0 -- -- 53
2017-09-18 02:00:00 7.7 0 Calma 3 Sudoeste 0 -- -- 53
2017-09-18 01:00:00 8.6 0 Calma 4 Sudoeste 0 -- -- 49
2017-09-18 00:00:00 9 2 Oeste 3 Sudoeste 0 -- -- 48
2017-09-17 23:00:00 9.5 0 Calma 3 Sudoeste 0 -- -- 45
2017-09-17 22:00:00 10.6 0 Calma 2 Sudoeste 0 -- -- 42
2017-09-17 21:00:00 15.1 2 Noroeste 15 Noroeste 0 -- -- 34
2017-09-17 20:00:00 19.7 11 Noroeste 19 Noroeste 0 -- -- 25
2017-09-17 19:00:00 21 10 Noroeste 23 Noroeste 0 -- -- 22
2017-09-17 18:00:00 23 14 Oeste 27 Oeste 0 -- -- 19
2017-09-17 17:00:00 22.9 11 Oeste 32 Oeste 0 -- -- 20
2017-09-17 16:00:00 22.9 12 Oeste 28 Oeste 0 -- -- 20
2017-09-17 15:00:00 22.1 12 Oeste 31 Sudoeste 0 -- -- 22
2017-09-17 14:00:00 21.8 10 Sudoeste 24 Sur 0 -- -- 26
2017-09-17 13:00:00 19.6 8 Oeste 22 Sudoeste 0 -- -- 31
2017-09-17 12:00:00 17.9 6 Oeste 16 Noroeste 0 -- -- 41
2017-09-17 11:00:00 16.1 10 Sur 18 Sudeste 0 -- -- 50
2017-09-17 10:00:00 13.5 6 Sur 10 Sur 0 -- -- 54
2017-09-17 09:00:00 6.4 0 Calma 3 Noroeste 0 -- -- 78
2017-09-17 08:00:00 3.4 0 Calma 4 Noroeste 0 -- -- 82
2017-09-17 07:00:00 4.1 0 Calma 4 Noroeste 0 -- -- 77
2017-09-17 06:00:00 4.1 0 Calma 5 Nordeste 0 -- -- 70
2017-09-17 05:00:00 5.8 3 Noroeste 13 Sudeste 0 -- -- 58
2017-09-17 04:00:00 4.2 0 Calma -- -- 0 -- -- 66
2017-09-17 03:00:00 4.8 0 Calma -- -- 0 -- -- 63
2017-09-17 02:00:00 5.1 0 Calma 3 Sur 0 -- -- 61
2017-09-17 01:00:00 5.4 0 Calma 4 Sur 0 -- -- 60
2017-09-17 00:00:00 6 2 Sudoeste 4 Norte 0 -- -- 57
2017-09-16 23:00:00 6.8 3 Sur 4 Sur 0 -- -- 52
2017-09-16 22:00:00 10.5 0 Calma 9 Oeste 0 -- -- 41
2017-09-16 21:00:00 12.7 4 Oeste 14 Noroeste 0 -- -- 37
2017-09-16 20:00:00 15.7 10 Noroeste 23 Oeste 0 -- -- 30
2017-09-16 19:00:00 18.8 15 Noroeste 29 Noroeste 0 -- -- 24
2017-09-16 18:00:00 19 15 Noroeste 33 Noroeste 0 -- -- 24
2017-09-16 17:00:00 19.7 9 Noroeste 24 Noroeste 0 -- -- 25
2017-09-16 16:00:00 19.5 14 Oeste 58 Noroeste 0 -- -- 26
2017-09-16 15:00:00 19.8 11 Noroeste 28 Noroeste 0 -- -- 27
2017-09-16 14:00:00 18.9 8 Noroeste 26 Norte 0 -- -- 28
2017-09-16 13:00:00 18.4 11 Norte 24 Norte 0 -- -- 28
2017-09-16 12:00:00 16.9 8 Norte 21 Noroeste 0 -- -- 33
2017-09-16 11:00:00 14.8 4 Noroeste 11 Noroeste 0 -- -- 44
2017-09-16 10:00:00 11.1 3 Nordeste 5 Nordeste 0 -- -- 59
2017-09-16 09:00:00 7.1 0 Calma 2 Noroeste 0 -- -- 76
2017-09-16 08:00:00 4.7 0 Calma 3 Nordeste 0 -- -- 85
2017-09-16 07:00:00 4.1 0 Calma 0 Calma 0 -- -- 85
2017-09-16 06:00:00 5.1 0 Calma 4 Sudeste 0 -- -- 78
2017-09-16 05:00:00 6.4 3 Norte 8 Norte 0 -- -- 75
2017-09-16 04:00:00 5.4 0 Calma 3 Sudeste 0 -- -- 78
2017-09-16 03:00:00 7.1 0 Calma 4 Nordeste 0 -- -- 71
2017-09-16 02:00:00 9.9 3 Este 8 Este 0 -- -- 60
2017-09-16 01:00:00 10.7 5 Este 25 Este 0 -- -- 57
2017-09-16 00:00:00 10.8 11 Este 28 Este 0 -- -- 55
2017-09-15 23:00:00 11.3 12 Este 27 Este 0 -- -- 52
2017-09-15 22:00:00 11.5 3 Este 12 Este 0 -- -- 51
2017-09-15 21:00:00 12.8 3 Norte 16 Norte 0 -- -- 47
2017-09-15 20:00:00 15.6 7 Norte 24 Noroeste 0 -- -- 41
2017-09-15 19:00:00 18.5 16 Norte 32 Norte 0 -- -- 39
2017-09-15 18:00:00 20.6 15 Norte 30 Norte 0 -- -- 40
2017-09-15 17:00:00 21.9 16 Norte 32 Norte 0 -- -- 40
2017-09-15 16:00:00 22.5 13 Norte 28 Norte 0 -- -- 41
2017-09-15 15:00:00 22.2 15 Norte 33 Noroeste 0 -- -- 42
2017-09-15 14:00:00 22.1 17 Norte 31 Noroeste 0 -- -- 43
2017-09-15 13:00:00 22.4 13 Sur 27 Sudeste 0 -- -- 43
2017-09-15 12:00:00 19.2 9 Sur 24 Sur 0 -- -- 57
2017-09-15 11:00:00 19.6 17 Sur 27 Sur 0 -- -- 58
2017-09-15 10:00:00 17.1 17 Sudeste 31 Sur 0 -- -- 72
2017-09-15 09:00:00 14.1 17 Sudeste 30 Sudeste 0 -- -- 88
2017-09-15 08:00:00 13.5 19 Sudeste 28 Sudeste 0 -- -- 92
2017-09-15 07:00:00 13.7 17 Sur 25 Sur 0 -- -- 90
2017-09-15 06:00:00 13.9 16 Sudeste 28 Sudeste 0 -- -- 87
2017-09-15 05:00:00 14.3 18 Sur 28 Sudeste 0 -- -- 83
2017-09-15 04:00:00 15 18 Sudeste 29 Sudeste 0 -- -- 73
2017-09-15 03:00:00 15.6 15 Sudeste 24 Sudeste 0 -- -- 70
2017-09-15 02:00:00 15.7 15 Sur 30 Sur 0 -- -- 62
2017-09-15 01:00:00 17.3 24 Sur 33 Sur 0 -- -- 41
2017-09-15 00:00:00 16.1 9 Sur 11 Sur 0 -- -- 44
2017-09-14 23:00:00 14.8 0 Calma 6 Sudoeste 0 -- -- 48
2017-09-14 22:00:00 16.6 3 Sudoeste 8 Noroeste 0 -- -- 42
2017-09-14 21:00:00 21.1 4 Oeste 11 Noroeste 0 -- -- 32
2017-09-14 20:00:00 24.3 5 Oeste 17 Oeste 0 -- -- 27
2017-09-14 19:00:00 25.7 5 Oeste 21 Oeste 0 -- -- 25
2017-09-14 18:00:00 26.6 11 Oeste 25 Oeste 0 -- -- 25
2017-09-14 17:00:00 27.4 11 Noroeste 24 Noroeste 0 -- -- 24
2017-09-14 16:00:00 27.2 15 Noroeste 30 Oeste 0 -- -- 25
2017-09-14 15:00:00 28.1 11 Noroeste 30 Noroeste 0 -- -- 25
2017-09-14 14:00:00 27.2 15 Noroeste 30 Noroeste 0 -- -- 26
2017-09-14 13:00:00 26.3 12 Oeste 30 Noroeste 0 -- -- 31
2017-09-14 12:00:00 25.5 9 Oeste 22 Oeste 0 -- -- 33
2017-09-14 11:00:00 23.1 3 Noroeste 9 Noroeste 0 -- -- 39
2017-09-14 10:00:00 19.2 0 Calma 4 Noroeste 0 -- -- 55
2017-09-14 09:00:00 13.1 0 Calma 4 Noroeste 0 -- -- 82
2017-09-14 08:00:00 9.7 0 Calma 5 Sur 0 -- -- 88
2017-09-14 07:00:00 9.6 0 Calma 3 Sur 0 -- -- 91
2017-09-14 06:00:00 10.2 2 Oeste 3 Oeste 0 -- -- 88
2017-09-14 05:00:00 10.8 0 Calma 4 Norte 0 -- -- 83
2017-09-14 04:00:00 11.4 0 Calma 4 Sur 0 -- -- 83
2017-09-14 03:00:00 12.5 0 Calma 6 Sur 0 -- -- 77
2017-09-14 02:00:00 14.2 0 Calma 5 Noroeste 0 -- -- 67
2017-09-14 01:00:00 18.5 4 Sudeste 20 Sudeste 0 -- -- 56
2017-09-14 00:00:00 18.8 6 Sur 21 Sur 0 -- -- 49
2017-09-13 23:00:00 19.1 15 Sur 21 Sur 0 -- -- 38
2017-09-13 22:00:00 16.2 2 Sudoeste 4 Sudoeste 0 -- -- 45
2017-09-13 21:00:00 20 3 Sudoeste 10 Oeste 0 -- -- 35
2017-09-13 20:00:00 26.8 4 Oeste 21 Oeste 0 -- -- 24
2017-09-13 19:00:00 29.1 10 Oeste 20 Noroeste 0 -- -- 22
2017-09-13 18:00:00 29.8 11 Sudoeste 24 Sudoeste 0 -- -- 22
2017-09-13 17:00:00 30 10 Sur 22 Sur 0 -- -- 25
2017-09-13 16:00:00 29.1 14 Sudeste 30 Sur 0 -- -- 27
2017-09-13 15:00:00 29.1 7 Sudoeste 22 Sur 0 -- -- 26
2017-09-13 14:00:00 28 10 Sur 27 Sur 0 -- -- 27
2017-09-13 13:00:00 26.7 12 Sur 22 Sur 0 -- -- 25
2017-09-13 12:00:00 25.1 12 Sur 26 Sudeste 0 -- -- 28
2017-09-13 11:00:00 22.8 15 Sudeste 23 Sudeste 0 -- -- 38
2017-09-13 10:00:00 19.8 7 Sudeste 19 Este 0 -- -- 46
2017-09-13 09:00:00 13.9 2 Nordeste 10 Nordeste 0 -- -- 54
2017-09-13 08:00:00 11.8 3 Este 13 Sudeste 0 -- -- 57
2017-09-13 07:00:00 8.8 0 Calma 6 Este 0 -- -- 67
2017-09-13 06:00:00 10.9 2 Sudeste 8 Sudoeste 0 -- -- 59
2017-09-13 05:00:00 11.2 0 Calma 11 Sur 0 -- -- 59
2017-09-13 04:00:00 9.7 0 Calma 5 Sur 0 -- -- 62
2017-09-13 03:00:00 13 5 Este 14 Sudeste 0 -- -- 50
2017-09-13 02:00:00 11.7 5 Sur 6 Sur 0 -- -- 56
2017-09-13 01:00:00 12.4 3 Sudeste 6 Este 0 -- -- 53
2017-09-13 00:00:00 12.9 4 Sudeste 8 Sudeste 0 -- -- 52
2017-09-12 23:00:00 13.6 2 Sur 6 Sudeste 0 -- -- 47
2017-09-12 22:00:00 13.6 0 Calma 4 Noroeste 0 -- -- 47
2017-09-12 21:00:00 17 2 Noroeste 9 Norte 0 -- -- 39
2017-09-12 20:00:00 22.1 6 Noroeste 18 Noroeste 0 -- -- 28
2017-09-12 19:00:00 25.7 12 Norte 22 Noroeste 0 -- -- 22
2017-09-12 18:00:00 26.6 8 Norte 27 Noroeste 0 -- -- 21
2017-09-12 17:00:00 26.3 13 Norte 30 Nordeste 0 -- -- 23
2017-09-12 16:00:00 25.4 17 Norte 30 Norte 0 -- -- 27
2017-09-12 15:00:00 24.9 13 Noroeste 29 Norte 0 -- -- 27
2017-09-12 14:00:00 24 14 Norte 31 Noroeste 0 -- -- 31
2017-09-12 13:00:00 22.1 8 Norte 25 Noroeste 0 -- -- 41
2017-09-12 12:00:00 20.2 13 Norte 30 Norte 0 -- -- 44
2017-09-12 11:00:00 18.6 13 Norte 24 Noroeste 0 -- -- 50
2017-09-12 10:00:00 17.7 10 Norte 22 Norte 0 -- -- 53
2017-09-12 09:00:00 13.5 2 Nordeste 10 Noroeste 0 -- -- 65
2017-09-12 08:00:00 10.2 2 Norte 9 Noroeste 0 -- -- 78
2017-09-12 07:00:00 9.2 0 Calma 7 Norte 0 -- -- 76
2017-09-12 06:00:00 11.1 3 Norte 9 Norte 0 -- -- 71
2017-09-12 05:00:00 12.7 0 Calma 14 Noroeste 0 -- -- 62
2017-09-12 04:00:00 13 4 Oeste 9 Noroeste 0 -- -- 65
2017-09-12 03:00:00 15.3 6 Oeste 12 Oeste 0 -- -- 58
2017-09-12 02:00:00 15.9 3 Oeste 10 Oeste 0 -- -- 56
2017-09-12 01:00:00 16.2 4 Noroeste 11 Noroeste 0 -- -- 54
2017-09-12 00:00:00 19.7 9 Noroeste 22 Noroeste 0 -- -- 44
2017-09-11 23:00:00 19 9 Noroeste 17 Noroeste 0 -- -- 44
2017-09-11 22:00:00 20.2 7 Noroeste 14 Oeste 0 -- -- 37
2017-09-11 21:00:00 23.1 8 Noroeste 25 Oeste 0 -- -- 32
2017-09-11 20:00:00 25.4 15 Noroeste 32 Oeste 0 -- -- 28
2017-09-11 19:00:00 27.5 18 Noroeste 38 Oeste 0 -- -- 26
2017-09-11 18:00:00 28 16 Noroeste 45 Noroeste 0 -- -- 28
2017-09-11 17:00:00 27.8 19 Noroeste 42 Noroeste 0 -- -- 27
2017-09-11 16:00:00 27.9 18 Noroeste 39 Noroeste 0 -- -- 27
2017-09-11 15:00:00 27.5 17 Noroeste 31 Noroeste 0 -- -- 25
2017-09-11 14:00:00 26 17 Noroeste 33 Noroeste 0 -- -- 29
2017-09-11 13:00:00 24.6 17 Noroeste 30 Noroeste 0 -- -- 35
2017-09-11 12:00:00 22.7 12 Noroeste 25 Noroeste 0 -- -- 40
2017-09-11 11:00:00 20.9 9 Noroeste 18 Noroeste 0 -- -- 42
2017-09-11 10:00:00 17.6 5 Oeste 9 Noroeste 0 -- -- 44
2017-09-11 09:00:00 11.5 0 Calma 4 Sudoeste 0 -- -- 56
2017-09-11 08:00:00 7.7 2 Oeste 4 Oeste 0 -- -- 71
2017-09-11 07:00:00 7.4 0 Calma 3 Sudoeste 0 -- -- 71
2017-09-11 06:00:00 7.2 0 Calma 3 Sur 0 -- -- 70
2017-09-11 05:00:00 7.5 2 Sur 4 Sur 0 -- -- 69
2017-09-11 04:00:00 9.2 0 Calma 8 Sudoeste 0 -- -- 61
2017-09-11 03:00:00 11.2 0 Calma 9 Sudoeste 0 -- -- 54
2017-09-11 02:00:00 11 2 Norte 4 Norte 0 -- -- 55
2017-09-11 01:00:00 12.4 0 Calma 10 Oeste 0 -- -- 50
2017-09-11 00:00:00 14 2 Norte 10 Noroeste 0 -- -- 44
2017-09-10 23:00:00 14.8 2 Noroeste 18 Noroeste 0 -- -- 41
2017-09-10 22:00:00 16.2 9 Noroeste 17 Noroeste 0 -- -- 37
2017-09-10 21:00:00 17.3 9 Noroeste 21 Noroeste 0 -- -- 34
2017-09-10 20:00:00 19.8 15 Noroeste 29 Noroeste 0 -- -- 30
2017-09-10 19:00:00 21.9 15 Noroeste 33 Noroeste 0 -- -- 27
2017-09-10 18:00:00 22.6 13 Norte 32 Noroeste 0 -- -- 27
2017-09-10 17:00:00 21.8 19 Noroeste 37 Noroeste 0 -- -- 28
2017-09-10 16:00:00 21.3 14 Norte 36 Noroeste 0 -- -- 31
2017-09-10 15:00:00 20.3 14 Norte 35 Noroeste 0 -- -- 34
2017-09-10 14:00:00 18.9 14 Norte 34 Norte 0 -- -- 36
2017-09-10 13:00:00 17.2 13 Norte 40 Nordeste 0 -- -- 41
2017-09-10 12:00:00 15.6 17 Norte 37 Nordeste 0 -- -- 45
2017-09-10 11:00:00 14.3 14 Norte 34 Noroeste 0 -- -- 50
2017-09-10 10:00:00 11.9 19 Norte 36 Noroeste 0 -- -- 58
2017-09-10 09:00:00 9.6 15 Norte 32 Norte 0 -- -- 67
2017-09-10 08:00:00 8.3 15 Norte 30 Norte 0 -- -- 72
2017-09-10 07:00:00 8.3 12 Norte 32 Norte 0 -- -- 74
2017-09-10 06:00:00 8.8 13 Norte 30 Norte 0 -- -- 75
2017-09-10 05:00:00 8.7 8 Norte 17 Norte 0 -- -- 80
2017-09-10 04:00:00 8.6 5 Noroeste 13 Norte 0 -- -- 77
2017-09-10 03:00:00 9.3 3 Norte 14 Norte 0 -- -- 73
2017-09-10 02:00:00 10.6 6 Norte 18 Norte 0 -- -- 67
2017-09-10 01:00:00 11.7 8 Norte 16 Norte 0 -- -- 60
2017-09-10 00:00:00 13.1 8 Nordeste 35 Norte 0 -- -- 59
2017-09-09 23:00:00 14.9 13 Noroeste 28 Noroeste 0 -- -- 36
2017-09-09 22:00:00 14.8 9 Noroeste 17 Noroeste 0 -- -- 38
2017-09-09 21:00:00 16.5 8 Norte 29 Norte 0 -- -- 35
2017-09-09 20:00:00 18.6 14 Norte 36 Oeste 0 -- -- 33
2017-09-09 19:00:00 21.2 23 Noroeste 39 Noroeste 0 -- -- 33
2017-09-09 18:00:00 20.8 15 Norte 37 Noroeste 0 -- -- 39
2017-09-09 17:00:00 21 16 Noroeste 36 Norte 0 -- -- 38
2017-09-09 16:00:00 21.2 19 Norte 40 Noroeste 0 -- -- 38
2017-09-09 15:00:00 21.2 15 Norte 35 Norte 0 -- -- 41
2017-09-09 14:00:00 22.2 17 Noroeste 34 Norte 0 -- -- 40
2017-09-09 13:00:00 21.2 18 Norte 39 Noroeste 0 -- -- 42
2017-09-09 12:00:00 20.8 17 Norte 38 Noroeste 0 -- -- 43
2017-09-09 11:00:00 18.2 10 Noroeste 18 Noroeste 0 -- -- 40
2017-09-09 10:00:00 17.1 5 Noroeste 13 Oeste 0 -- -- 39
2017-09-09 09:00:00 15.3 6 Noroeste 12 Oeste 0 -- -- 42
2017-09-09 08:00:00 11.3 2 Noroeste 6 Noroeste 0 -- -- 52
2017-09-09 07:00:00 10.4 3 Oeste 5 Oeste 0 -- -- 47
2017-09-09 06:00:00 9.8 2 Sudoeste 3 Oeste 0 -- -- 55
2017-09-09 05:00:00 10.1 0 Calma 4 Sudoeste 0 -- -- 52
2017-09-09 04:00:00 12 0 Calma 7 Sudoeste 0 -- -- 44
2017-09-09 03:00:00 11.4 3 Sudoeste 5 Sudoeste 0 -- -- 46
2017-09-09 02:00:00 12.7 2 Sudoeste 10 Oeste 0 -- -- 42
2017-09-09 01:00:00 14.3 2 Oeste 9 Sudoeste 0 -- -- 37
2017-09-09 00:00:00 14.7 4 Sudeste 8 Sudoeste 0 -- -- 35
2017-09-08 23:00:00 14.7 3 Oeste 8 Oeste 0 -- -- 39
2017-09-08 22:00:00 15.1 0 Calma 5 Oeste 0 -- -- 40
2017-09-08 21:00:00 18.8 0 Calma 14 Oeste 0 -- -- 30
2017-09-08 20:00:00 26.5 7 Noroeste 25 Oeste 0 -- -- 17
2017-09-08 19:00:00 28.7 12 Noroeste 27 Noroeste 0 -- -- 17
2017-09-08 18:00:00 29.2 13 Oeste 31 Oeste 0 -- -- 19
2017-09-08 17:00:00 29.4 12 Oeste 26 Noroeste 0 -- -- 19
2017-09-08 16:00:00 29.4 9 Noroeste 26 Noroeste 0 -- -- 21
2017-09-08 15:00:00 28.8 8 Oeste 26 Norte 0 -- -- 21
2017-09-08 14:00:00 27.9 6 Sur 18 Sudoeste 0 -- -- 26
2017-09-08 13:00:00 26.5 9 Sudoeste 16 Sur 0 -- -- 29
2017-09-08 12:00:00 25.1 7 Sudoeste 14 Sur 0 -- -- 38
2017-09-08 11:00:00 22.8 9 Sudeste 15 Sudeste 0 -- -- 41
2017-09-08 10:00:00 18 2 Norte 4 Noroeste 0 -- -- 48
2017-09-08 09:00:00 12.7 3 Noroeste 4 Noroeste 0 -- -- 54
2017-09-08 08:00:00 10.2 0 Calma 4 Noroeste 0 -- -- 66
2017-09-08 07:00:00 11.5 0 Calma 9 Sudeste 0 -- -- 55
2017-09-08 06:00:00 12.4 4 Sudeste 17 Este 0 -- -- 50
2017-09-08 05:00:00 10.7 4 Sudeste 10 Sudeste 0 -- -- 58
2017-09-08 04:00:00 11.3 4 Este 10 Este 0 -- -- 52
2017-09-08 03:00:00 10.2 0 Calma 4 Noroeste 0 -- -- 55
2017-09-08 02:00:00 12.3 0 Calma 8 Sudeste 0 -- -- 46
2017-09-08 01:00:00 13.2 5 Sudeste 8 Sur 0 -- -- 43
2017-09-08 00:00:00 13.2 5 Sudeste 8 Sudeste 0 -- -- 42
2017-09-07 23:00:00 14.1 2 Sur 6 Este 0 -- -- 41
2017-09-07 22:00:00 14.2 0 Calma 8 Norte 0 -- -- 40
2017-09-07 21:00:00 17.3 2 Norte 6 Noroeste 0 -- -- 31
2017-09-07 20:00:00 24.7 4 Noroeste 17 Noroeste 0 -- -- 15
2017-09-07 19:00:00 27.6 9 Norte 23 Noroeste 0 -- -- 13
2017-09-07 18:00:00 28.5 11 Noroeste 26 Norte 0 -- -- 18
2017-09-07 17:00:00 29.2 6 Noroeste 26 Noroeste 0 -- -- 25
2017-09-07 16:00:00 28.9 6 Norte 23 Norte 0 -- -- 23
2017-09-07 15:00:00 28 10 Norte 26 Norte 0 -- -- 30
2017-09-07 14:00:00 27 5 Noroeste 15 Oeste 0 -- -- 46
2017-09-07 13:00:00 24.5 5 Oeste 13 Noroeste 0 -- -- 59
2017-09-07 12:00:00 24.1 3 Sudeste 13 Sudeste 0 -- -- 58
2017-09-07 11:00:00 22 4 Nordeste 18 Sudeste 0 -- -- 67
2017-09-07 10:00:00 20.2 8 Sudeste 17 Sudeste 0 -- -- 72
2017-09-07 09:00:00 16.4 3 Sudeste 6 Este 0 -- -- 86
2017-09-07 08:00:00 14.2 3 Este 6 Este 0 -- -- 92
2017-09-07 07:00:00 15.4 2 Sudeste 8 Este 0 -- -- 85
2017-09-07 06:00:00 16.2 4 Este 8 Este 0 -- -- 87
2017-09-07 05:00:00 16 4 Sudeste 8 Nordeste 0 -- -- 87
2017-09-07 04:00:00 16.1 2 Nordeste 8 Este 0 -- -- 83
2017-09-07 03:00:00 17 4 Sudeste 17 Sudeste 0 -- -- 78
2017-09-07 02:00:00 17.4 11 Sudeste 23 Sudeste 0 -- -- 76
2017-09-07 01:00:00 17.5 11 Sudeste 19 Sudeste 0 -- -- 75
2017-09-07 00:00:00 17.4 2 Sudeste 15 Sudeste 0 -- -- 72
2017-09-06 23:00:00 18.5 3 Este 21 Sudeste 0 -- -- 70
2017-09-06 22:00:00 18.8 8 Sudeste 17 Sur 0 -- -- 71
2017-09-06 21:00:00 19.7 11 Sudeste 38 Sudeste 0 -- -- 66
2017-09-06 20:00:00 20.9 16 Sudeste 34 Sudeste 0 -- -- 64
2017-09-06 19:00:00 22.9 19 Sudeste 30 Este 0 -- -- 63
2017-09-06 18:00:00 30 9 Noroeste 23 Noroeste 0 -- -- 32
2017-09-06 17:00:00 31.5 11 Noroeste 26 Noroeste 0 -- -- 29
2017-09-06 16:00:00 30.5 12 Noroeste 24 Noroeste 0 -- -- 32
2017-09-06 15:00:00 30 5 Noroeste 20 Noroeste 0 -- -- 35
2017-09-06 14:00:00 31 7 Sudoeste 17 Sudoeste 0 -- -- 35
2017-09-06 13:00:00 28.8 5 Oeste 14 Sur 0 -- -- 40
2017-09-06 12:00:00 26.9 9 Sur 18 Sur 0 -- -- 47
2017-09-06 11:00:00 25.2 13 Sur 21 Sudeste 0 -- -- 52
2017-09-06 10:00:00 23.2 9 Sudeste 17 Sur 0 -- -- 60
2017-09-06 09:00:00 17.6 2 Norte 5 Sudeste 0 -- -- 84
2017-09-06 08:00:00 14.4 0 Calma 3 Sudeste 0 -- -- 91
2017-09-06 07:00:00 15 0 Calma 3 Sudeste 0 -- -- 88
2017-09-06 06:00:00 16.9 0 Calma 15 Este 0 -- -- 79
2017-09-06 05:00:00 18.4 6 Sudeste 15 Sudeste 0 -- -- 76
2017-09-06 04:00:00 18.1 9 Sudeste 17 Sudeste 0 -- -- 74
2017-09-06 03:00:00 17.1 4 Sudeste 12 Este 0 -- -- 75
2017-09-06 02:00:00 19.1 3 Norte 24 Sudeste 0 -- -- 64
2017-09-06 01:00:00 16.4 0 Calma 3 Sur 0 -- -- 72
2017-09-06 00:00:00 16.6 0 Calma 3 Noroeste 0 -- -- 70
2017-09-05 23:00:00 17.6 0 Calma 5 Sur 0 -- -- 65
2017-09-05 22:00:00 18.8 2 Oeste 4 Nordeste 0 -- -- 60
2017-09-05 21:00:00 21.5 3 Oeste 9 Noroeste 0 -- -- 50
2017-09-05 20:00:00 28.9 6 Noroeste 14 Oeste 0 -- -- 32
2017-09-05 19:00:00 30.4 6 Noroeste 17 Oeste 0 -- -- 29
2017-09-05 18:00:00 31.1 5 Noroeste 18 Norte 0 -- -- 31
2017-09-05 17:00:00 30.6 7 Sudoeste 19 Oeste 0 -- -- 32
2017-09-05 16:00:00 30.2 5 Sudoeste 15 Sur 0 -- -- 33
2017-09-05 15:00:00 29.4 5 Este 16 Sudoeste 0 -- -- 32
2017-09-05 14:00:00 28.3 6 Sudoeste 12 Sudeste 0 -- -- 37
2017-09-05 13:00:00 26.3 6 Sudoeste 14 Sudoeste 0 -- -- 52
2017-09-05 12:00:00 23.8 6 Sudoeste 19 Sur 0 -- -- 58
2017-09-05 11:00:00 20.8 10 Sudeste 24 Sudeste 0 -- -- 69
2017-09-05 10:00:00 18.7 13 Sudeste 28 Sudeste 0 -- -- 80
2017-09-05 09:00:00 16.5 0 Calma 4 Este 0 -- -- 90
2017-09-05 08:00:00 14.1 0 Calma 6 Este 0 -- -- 92
2017-09-05 07:00:00 15.2 0 Calma 20 Sudeste 0 -- -- 89
2017-09-05 06:00:00 16 11 Sudeste 17 Sudeste 0 -- -- 91
2017-09-05 05:00:00 16.1 8 Sudeste 19 Sudeste 0 -- -- 91
2017-09-05 04:00:00 16.3 14 Sudeste 24 Sudeste 0 -- -- 91
2017-09-05 03:00:00 16.5 13 Sudeste 22 Sudeste 0 -- -- 90
2017-09-05 02:00:00 16.9 14 Sudeste 26 Sudeste 0 -- -- 89
2017-09-05 01:00:00 17.4 17 Sudeste 27 Sudeste 0 -- -- 85
2017-09-05 00:00:00 18.1 15 Sur 22 Sur 0 -- -- 71
2017-09-04 23:00:00 15.9 2 Sudeste 5 Sur 0 -- -- 64
2017-09-04 22:00:00 17.4 0 Calma 8 Noroeste 0 -- -- 58
2017-09-04 21:00:00 22.4 6 Noroeste 18 Noroeste 0 -- -- 42
2017-09-04 20:00:00 25.9 9 Noroeste 19 Noroeste 0 -- -- 35
2017-09-04 19:00:00 28.4 9 Noroeste 24 Noroeste 0 -- -- 31
2017-09-04 18:00:00 28.9 11 Noroeste 21 Norte 0 -- -- 30
2017-09-04 17:00:00 28.5 7 Nordeste 29 Noroeste 0 -- -- 32
2017-09-04 16:00:00 28.3 13 Norte 24 Norte 0 -- -- 29
2017-09-04 15:00:00 27.5 10 Norte 27 Noroeste 0 -- -- 30
2017-09-04 14:00:00 27 9 Noroeste 21 Noroeste 0 -- -- 30
2017-09-04 13:00:00 25.3 11 Noroeste 21 Norte 0 -- -- 36
2017-09-04 12:00:00 24.1 9 Norte 19 Nordeste 0 -- -- 41
2017-09-04 11:00:00 22.2 11 Norte 20 Norte 0 -- -- 43
2017-09-04 10:00:00 20.5 4 Norte 8 Norte 0 -- -- 38
2017-09-04 09:00:00 14.6 0 Calma 3 Norte 0 -- -- 44
2017-09-04 08:00:00 9.4 0 Calma 3 Oeste 0 -- -- 70
2017-09-04 07:00:00 10.4 3 Oeste 4 Norte 0 -- -- 66
2017-09-04 06:00:00 10.4 2 Sur 4 Sur 0 -- -- 61
2017-09-04 05:00:00 11.3 0 Calma 10 Oeste 0 -- -- 59
2017-09-04 04:00:00 13 3 Oeste 8 Noroeste 0 -- -- 46
2017-09-04 03:00:00 18.4 4 Oeste 15 Oeste 0 -- -- 31
2017-09-04 02:00:00 19.9 9 Noroeste 19 Oeste 0 -- -- 28
2017-09-04 01:00:00 16.6 0 Calma 8 Oeste 0 -- -- 40
2017-09-04 00:00:00 15.9 2 Noroeste 15 Noroeste 0 -- -- 38
2017-09-03 23:00:00 15.1 2 Sudoeste 4 Sudoeste 0 -- -- 48
2017-09-03 22:00:00 16.2 2 Sudoeste 8 Sudoeste 0 -- -- 45
2017-09-03 21:00:00 21.2 4 Sudoeste 13 Noroeste 0 -- -- 31
2017-09-03 20:00:00 27.1 9 Noroeste 20 Oeste 0 -- -- 19
2017-09-03 19:00:00 28.9 10 Oeste 27 Noroeste 0 -- -- 19
2017-09-03 18:00:00 28.8 14 Oeste 23 Oeste 0 -- -- 19
2017-09-03 17:00:00 29.2 13 Noroeste 28 Noroeste 0 -- -- 18
2017-09-03 16:00:00 28.1 12 Noroeste 31 Noroeste 0 -- -- 19
2017-09-03 15:00:00 27.9 12 Noroeste 24 Noroeste 0 -- -- 21
2017-09-03 14:00:00 27.1 15 Noroeste 29 Noroeste 0 -- -- 22
2017-09-03 13:00:00 26.5 11 Noroeste 22 Noroeste 0 -- -- 24
2017-09-03 12:00:00 24.9 4 Oeste 19 Oeste 0 -- -- 28
2017-09-03 11:00:00 20.7 3 Nordeste 5 Nordeste 0 -- -- 42
2017-09-03 10:00:00 15.8 0 Calma 4 Nordeste 0 -- -- 56
2017-09-03 09:00:00 12.7 2 Noroeste 4 Noroeste 0 -- -- 55
2017-09-03 08:00:00 10.2 2 Noroeste 4 Noroeste 0 -- -- 68
2017-09-03 07:00:00 10.5 2 Noroeste 5 Sudeste 0 -- -- 56
2017-09-03 06:00:00 9 2 Sudeste 11 Sudoeste 0 -- -- 66
2017-09-03 05:00:00 9.5 0 Calma 17 Sudoeste 0 -- -- 65
2017-09-03 04:00:00 9.2 2 Sudoeste 3 Sudoeste 0 -- -- 62
2017-09-03 03:00:00 9.1 2 Sudoeste 2 Sudoeste 0 -- -- 62
2017-09-03 02:00:00 10.4 0 Calma 4 Sur 0 -- -- 58
2017-09-03 01:00:00 11 3 Sur 4 Sudeste 0 -- -- 56
2017-09-03 00:00:00 10.4 2 Oeste 3 Sudoeste 0 -- -- 61
2017-09-02 23:00:00 11.2 2 Oeste 4 Sudoeste 0 -- -- 60
2017-09-02 22:00:00 12.5 2 Sudoeste 3 Sudoeste 0 -- -- 56
2017-09-02 21:00:00 15.6 2 Oeste 6 Noroeste 0 -- -- 47
2017-09-02 20:00:00 25.1 5 Noroeste 16 Noroeste 0 -- -- 21
2017-09-02 19:00:00 27.2 10 Norte 19 Noroeste 0 -- -- 16
2017-09-02 18:00:00 27.7 11 Noroeste 20 Noroeste 0 -- -- 14
2017-09-02 17:00:00 27.2 10 Noroeste 22 Noroeste 0 -- -- 15
2017-09-02 16:00:00 27 11 Norte 23 Norte 0 -- -- 16
2017-09-02 15:00:00 25.8 6 Norte 23 Noroeste 0 -- -- 17
2017-09-02 14:00:00 24.9 8 Noroeste 17 Noroeste 0 -- -- 15
2017-09-02 13:00:00 23 8 Noroeste 19 Noroeste 0 -- -- 23
2017-09-02 12:00:00 21 3 Sudoeste 12 Oeste 0 -- -- 33
2017-09-02 11:00:00 19.3 4 Norte 13 Norte 0 -- -- 40
2017-09-02 10:00:00 16.5 5 Norte 12 Nordeste 0 -- -- 49
2017-09-02 09:00:00 12.3 4 Norte 13 Nordeste 0 -- -- 63
2017-09-02 08:00:00 8 0 Calma 8 Nordeste 0 -- -- 85
2017-09-02 07:00:00 10.1 2 Este 8 Nordeste 0 -- -- 75
2017-09-02 06:00:00 10.6 2 Norte 6 Nordeste 0 -- -- 75
2017-09-02 05:00:00 12 4 Nordeste 12 Nordeste 0 -- -- 70
2017-09-02 04:00:00 12.1 3 Nordeste 15 Nordeste 0 -- -- 71
2017-09-02 03:00:00 12.7 5 Norte 13 Norte 0 -- -- 73
2017-09-02 02:00:00 14.1 2 Nordeste 14 Sudeste 0 -- -- 72
2017-09-02 01:00:00 15.9 9 Sudeste 30 Sudeste 0 -- -- 75
2017-09-02 00:00:00 16.9 11 Sudeste 19 Sudeste 0 -- -- 76
2017-09-01 23:00:00 17.3 6 Sudeste 13 Este 0 -- -- 62
2017-09-01 22:00:00 16.3 2 Nordeste 4 Nordeste 0 -- -- 64
2017-09-01 21:00:00 19.5 0 Calma 11 Norte 0 -- -- 57
2017-09-01 20:00:00 24.9 10 Norte 24 Noroeste 0 -- -- 37
2017-09-01 19:00:00 26.5 10 Norte 28 Norte 0 -- -- 37
2017-09-01 18:00:00 25.3 12 Norte 26 Norte 0 -- -- 42
2017-09-01 17:00:00 27.4 11 Noroeste 24 Noroeste 0 -- -- 35
2017-09-01 16:00:00 27 15 Norte 30 Norte 0 -- -- 44
2017-09-01 15:00:00 26.9 8 Sudoeste 22 Sudoeste 0 -- -- 43
2017-09-01 14:00:00 26 8 Sudoeste 22 Sudoeste 0 -- -- 47
2017-09-01 13:00:00 23 7 Sudeste 13 Sudeste 0 -- -- 62
2017-09-01 12:00:00 21.1 3 Este 14 Sudeste 0 -- -- 68
2017-09-01 11:00:00 20.2 6 Sudeste 20 Sudeste 0 -- -- 72
2017-09-01 10:00:00 19 8 Sudeste 16 Sur 0 -- -- 77
2017-09-01 09:00:00 16.2 4 Sudeste 9 Sur 0 -- -- 90
2017-09-01 08:00:00 14.6 4 Este 15 Sudeste 0 -- -- 94
2017-09-01 07:00:00 14.8 5 Sudeste 15 Sudeste 0 -- -- 93
2017-09-01 06:00:00 15.3 10 Sudeste 20 Sudeste 0 -- -- 91
2017-09-01 05:00:00 15.9 8 Sudeste 22 Sudeste 0 -- -- 91
2017-09-01 04:00:00 16.5 14 Sudeste 25 Sudeste 0 -- -- 91
2017-09-01 03:00:00 17 12 Sudeste 22 Sudeste 0 -- -- 91
2017-09-01 02:00:00 16.9 11 Sudeste 22 Sudeste 0 -- -- 90
2017-09-01 01:00:00 17.5 14 Sudeste 26 Sudeste 0 -- -- 85
2017-09-01 00:00:00 18.2 18 Sudeste 27 Sudeste 0 -- -- 75
2017-08-31 23:00:00 16.5 3 Sudoeste 6 Sur 0 -- -- 68
2017-08-31 22:00:00 17.1 0 Calma 4 Oeste 0 -- -- 70
2017-08-31 21:00:00 19.8 3 Oeste 9 Oeste 0 -- -- 54
2017-08-31 20:00:00 25.7 5 Oeste 16 Oeste 0 -- -- 35
2017-08-31 19:00:00 27.7 6 Noroeste 15 Oeste 0 -- -- 29
2017-08-31 18:00:00 28 6 Noroeste 19 Sudoeste 0 -- -- 30
2017-08-31 17:00:00 27.3 6 Noroeste 21 Sudoeste 0 -- -- 31
2017-08-31 16:00:00 25.5 7 Sudoeste 18 Sur 0 -- -- 36
2017-08-31 15:00:00 26.8 11 Oeste 19 Noroeste 0 -- -- 32
2017-08-31 14:00:00 25.4 9 Noroeste 23 Oeste 0 -- -- 38
2017-08-31 13:00:00 24.2 8 Sudoeste 20 Sur 0.2 -- -- 39
2017-08-31 12:00:00 24.1 5 Sudoeste 15 Sudoeste 0 -- -- 45
2017-08-31 11:00:00 22.5 10 Sur 16 Sur 0 -- -- 47
2017-08-31 10:00:00 19.6 3 Norte 8 Oeste 0 -- -- 59
2017-08-31 09:00:00 14.8 3 Noroeste 4 Noroeste 0 -- -- 83
2017-08-31 08:00:00 12 0 Calma 3 Noroeste 0 -- -- 87
2017-08-31 07:00:00 12.7 0 Calma 4 Sur 0 -- -- 86
2017-08-31 06:00:00 12.8 0 Calma 2 Sudoeste 0 -- -- 90
2017-08-31 05:00:00 13.4 0 Calma 4 Sur 0 -- -- 85
2017-08-31 04:00:00 13.8 2 Sur 3 Sur 0 -- -- 89
2017-08-31 03:00:00 14 0 Calma 3 Sur 0 -- -- 84
2017-08-31 02:00:00 14.5 0 Calma 4 Este 0 -- -- 83
2017-08-31 01:00:00 15.2 0 Calma 4 Sur 0 -- -- 78
2017-08-31 00:00:00 17 3 Oeste 11 Sur 0 -- -- 69
2017-08-30 23:00:00 16 6 Sur 9 Sur 0 -- -- 72
2017-08-30 22:00:00 17.3 4 Sur 13 Sur 0 -- -- 67
2017-08-30 21:00:00 18.7 7 Sur 15 Oeste 0 -- -- 62
2017-08-30 20:00:00 22.5 5 Oeste 18 Sudoeste 0 -- -- 46
2017-08-30 19:00:00 23.3 6 Oeste 23 Sur 0 -- -- 41
2017-08-30 18:00:00 24.4 10 Sudoeste 19 Oeste 0 -- -- 40
2017-08-30 17:00:00 22.6 8 Sudoeste 20 Sudoeste 0 -- -- 46
2017-08-30 16:00:00 23.3 3 Nordeste 16 Noroeste 0 -- -- 50
2017-08-30 15:00:00 22.4 6 Noroeste 15 Oeste 0 -- -- 49
2017-08-30 14:00:00 20.2 8 Sur 17 Sur 0 -- -- 64
2017-08-30 13:00:00 19.3 12 Sur 19 Sur 0 -- -- 71
2017-08-30 12:00:00 18.7 9 Sur 15 Sudeste 0 -- -- 76
2017-08-30 11:00:00 16.5 6 Sur 14 Sur 0 -- -- 86
2017-08-30 10:00:00 15.1 9 Sur 16 Sur 0.2 -- -- 92
2017-08-30 09:00:00 14.4 8 Sur 18 Sudeste 0 -- -- 95
2017-08-30 08:00:00 14.1 11 Sudeste 24 Sudeste 0 -- -- 96
2017-08-30 07:00:00 14 16 Sur 23 Sur 0 -- -- 96
2017-08-30 06:00:00 14.4 10 Sudeste 22 Sudeste 0 -- -- 94
2017-08-30 05:00:00 14.7 15 Sudeste 23 Sudeste 0 -- -- 93
2017-08-30 04:00:00 14.6 12 Sudeste 24 Sudeste 0 -- -- 92
2017-08-30 03:00:00 15 12 Sudeste 23 Sudeste 0 -- -- 89
2017-08-30 02:00:00 14.7 13 Sudeste 22 Sudeste 0 -- -- 86
2017-08-30 01:00:00 15 9 Sudeste 21 Sudeste 0 -- -- 82
2017-08-30 00:00:00 14.9 13 Sudeste 24 Sudeste 0 -- -- 83
2017-08-29 23:00:00 14.7 10 Sudeste 27 Sudeste 0 -- -- 86
2017-08-29 22:00:00 14.8 12 Sudeste 26 Sudeste 0 -- -- 85
2017-08-29 21:00:00 15.4 9 Sudeste 34 Sudeste 0.2 -- -- 84
2017-08-29 20:00:00 16.9 21 Sudeste 33 Sudeste 0 -- -- 81
2017-08-29 19:00:00 17.4 15 Sudeste 26 Sudeste 0 -- -- 87
2017-08-29 18:00:00 16.4 15 Sudeste 38 Sur 9.4 -- -- 92
2017-08-29 17:00:00 21.9 8 Sur 26 Sur 0 -- -- 58
2017-08-29 16:00:00 22.4 17 Sur 36 Sudeste 0 -- -- 56
2017-08-29 15:00:00 22.5 23 Sudeste 37 Sudeste 0 -- -- 60
2017-08-29 14:00:00 21.8 20 Sur 36 Sur 0 -- -- 68
2017-08-29 13:00:00 21 14 Sudeste 30 Sudeste 0 -- -- 70
2017-08-29 12:00:00 19.3 13 Sudeste 25 Sudeste 0 -- -- 79
2017-08-29 11:00:00 19.2 13 Sudeste 23 Sudeste 0 -- -- 79
2017-08-29 10:00:00 17.8 9 Sudeste 17 Sudeste 0 -- -- 84
2017-08-29 09:00:00 15.5 5 Sudeste 21 Sudeste 0 -- -- 91
2017-08-29 08:00:00 13.4 2 Sur 6 Este 0 -- -- 96
2017-08-29 07:00:00 13.7 0 Calma 12 Sudeste 2.8 -- -- 93
2017-08-29 06:00:00 14.9 5 Oeste 30 Oeste 0 -- -- 85
2017-08-29 05:00:00 14.6 6 Sur 10 Sur 0 -- -- 89
2017-08-29 04:00:00 14 4 Sudeste 7 Sudeste 0 -- -- 93
2017-08-29 03:00:00 13.9 5 Sudeste 9 Sur 0 -- -- 95
2017-08-29 02:00:00 13.6 3 Sur 6 Sur 0 -- -- 96
2017-08-29 01:00:00 14.6 4 Norte 16 Oeste 0.2 -- -- 93
2017-08-29 00:00:00 14.9 4 Nordeste 18 Sudeste 0.2 -- -- 91
2017-08-28 23:00:00 15 10 Sur 19 Sudeste 0.4 -- -- 88
2017-08-28 22:00:00 14.9 5 Sudeste 13 Este 0 -- -- 88
2017-08-28 21:00:00 15.1 5 Este 28 Sudeste 4.8 -- -- 91
2017-08-28 20:00:00 16.6 2 Nordeste 14 Noroeste 0.4 -- -- 84
2017-08-28 19:00:00 17.5 6 Noroeste 26 Oeste 0 -- -- 82
2017-08-28 18:00:00 17.7 8 Noroeste 42 Oeste 1.6 -- -- 87
2017-08-28 17:00:00 23.6 13 Sudoeste 32 Sudoeste 0 -- -- 51
2017-08-28 16:00:00 24.1 17 Sur 29 Sur 0 -- -- 56
2017-08-28 15:00:00 23.2 15 Sur 40 Sudeste 0 -- -- 61
2017-08-28 14:00:00 24.4 24 Sudeste 39 Sudeste 0 -- -- 52
2017-08-28 13:00:00 25.5 14 Sur 26 Sur 0 -- -- 50
2017-08-28 12:00:00 24.2 14 Sur 26 Sudeste 0 -- -- 56
2017-08-28 11:00:00 24.3 16 Sudeste 30 Sudeste 0.2 -- -- 56
2017-08-28 10:00:00 22.1 18 Sudeste 31 Sudeste 0 -- -- 63
2017-08-28 09:00:00 19 13 Sudeste 24 Sudeste 0 -- -- 78
2017-08-28 08:00:00 17.6 13 Sudeste 26 Este 0 -- -- 85
2017-08-28 07:00:00 17.6 16 Sudeste 32 Sudeste 0 -- -- 84
2017-08-28 06:00:00 18.1 21 Sudeste 36 Sudeste 0 -- -- 81
2017-08-28 05:00:00 17.8 24 Sudeste 41 Sudeste 0 -- -- 80
2017-08-28 04:00:00 17.4 22 Sudeste 32 Sudeste 0 -- -- 72
2017-08-28 03:00:00 17.5 19 Sudeste 34 Sudeste 0 -- -- 71
2017-08-28 02:00:00 17.8 20 Sudeste 30 Sudeste 0.2 -- -- 69
2017-08-28 01:00:00 18.5 16 Sudeste 27 Sudeste 0 -- -- 63
2017-08-28 00:00:00 18.3 14 Sudeste 23 Sudeste 0 -- -- 64
2017-08-27 23:00:00 17.8 11 Sudeste 23 Sudeste 0 -- -- 69
2017-08-27 22:00:00 17.9 16 Sudeste 25 Sudeste 0 -- -- 70
2017-08-27 21:00:00 17.9 16 Sudeste 28 Sudeste 0 -- -- 73
2017-08-27 20:00:00 18.2 21 Sudeste 50 Sudeste 0 -- -- 76
2017-08-27 19:00:00 18.1 28 Sudeste 42 Sudeste 0 -- -- 78
2017-08-27 18:00:00 18.1 14 Sudeste 27 Sudeste 0.2 -- -- 82
2017-08-27 17:00:00 17.5 13 Sudeste 39 Sudeste 0.4 -- -- 84
2017-08-27 16:00:00 15.7 6 Sur 46 Oeste 3.6 -- -- 93
2017-08-27 15:00:00 21.4 10 Sudoeste 53 Oeste 0.2 -- -- 66
2017-08-27 14:00:00 22 9 Sudeste 14 Sur 0 -- -- 67
2017-08-27 13:00:00 21.6 7 Sur 12 Sur 0.8 -- -- 67
2017-08-27 12:00:00 20.6 8 Sur 29 Sudeste 0.2 -- -- 69
2017-08-27 11:00:00 23.8 20 Sudeste 27 Sur 0.2 -- -- 51
2017-08-27 10:00:00 22 8 Sudeste 19 Sudeste 0 -- -- 66
2017-08-27 09:00:00 18.7 14 Sudeste 29 Sur 0.2 -- -- 78
2017-08-27 08:00:00 19.9 9 Sudeste 23 Sudeste 0 -- -- 68
2017-08-27 07:00:00 19.7 17 Sudeste 30 Sudeste 0 -- -- 69
2017-08-27 06:00:00 18.9 9 Sudeste 17 Sudeste 0 -- -- 73
2017-08-27 05:00:00 19.6 6 Sudeste 23 Sudeste 0 -- -- 71
2017-08-27 04:00:00 18.6 9 Sudeste 19 Sudeste 0 -- -- 79
2017-08-27 03:00:00 18.7 10 Sudeste 19 Sudeste 0 -- -- 80
2017-08-27 02:00:00 20.1 13 Sudeste 32 Sudeste 0 -- -- 73
2017-08-27 01:00:00 20.8 13 Sudeste 25 Sudeste 0 -- -- 67
2017-08-27 00:00:00 20.8 3 Oeste 13 Sudeste 0 -- -- 62
2017-08-26 23:00:00 20.1 7 Sur 13 Sur 0 -- -- 62
2017-08-26 22:00:00 20.3 9 Sudeste 17 Sudeste 0 -- -- 62
2017-08-26 21:00:00 21 14 Sur 32 Este 0.6 -- -- 69
2017-08-26 20:00:00 27 5 Este 30 Sudeste 0 -- -- 35
2017-08-26 19:00:00 30.9 12 Noroeste 27 Noroeste 0 -- -- 23
2017-08-26 18:00:00 31.2 14 Norte 23 Noroeste 0 -- -- 23
2017-08-26 17:00:00 31.7 8 Noroeste 22 Oeste 0 -- -- 24
2017-08-26 16:00:00 31.3 12 Noroeste 24 Noroeste 0 -- -- 27
2017-08-26 15:00:00 32.5 10 Oeste 28 Sur 0 -- -- 24
2017-08-26 14:00:00 32.3 11 Sur 27 Sudoeste 0 -- -- 26
2017-08-26 13:00:00 31.8 9 Sur 21 Sur 0 -- -- 27
2017-08-26 12:00:00 29.7 13 Sudeste 23 Sudeste 0 -- -- 31
2017-08-26 11:00:00 26.1 12 Sur 25 Sudeste 0 -- -- 45
2017-08-26 10:00:00 24.4 17 Sudeste 32 Sudeste 0 -- -- 50
2017-08-26 09:00:00 21 19 Sur 27 Sudeste 0 -- -- 60
2017-08-26 08:00:00 19.5 14 Sudeste 27 Sudeste 0 -- -- 66
2017-08-26 07:00:00 19.7 18 Sudeste 27 Sur 0 -- -- 64
2017-08-26 06:00:00 19.8 19 Sudeste 26 Sudeste 0 -- -- 62
2017-08-26 05:00:00 20.3 21 Sudeste 28 Sudeste 0 -- -- 58
2017-08-26 04:00:00 21.1 19 Sudeste 31 Sudeste 0 -- -- 52
2017-08-26 03:00:00 22 21 Sudeste 30 Sur 0 -- -- 47
2017-08-26 02:00:00 22.8 21 Sudeste 29 Sudeste 0 -- -- 43
2017-08-26 01:00:00 23.2 19 Sudeste 27 Sudeste 0 -- -- 40
2017-08-26 00:00:00 23.9 15 Sudeste 27 Sudeste 0 -- -- 38